createdAt,value
2022-11-29T00:01:41.157Z,2.42
2022-11-29T00:04:09.540Z,2.40
2022-11-29T00:06:38.263Z,2.42
2022-11-29T00:09:11.712Z,2.41
2022-11-29T00:11:59.944Z,2.39
2022-11-29T00:14:29.572Z,2.36
2022-11-29T00:17:02.449Z,2.36
2022-11-29T00:19:32.775Z,2.27
2022-11-29T00:22:01.665Z,2.33
2022-11-29T00:24:32.521Z,2.30
2022-11-29T00:27:01.955Z,2.30
2022-11-29T00:29:30.587Z,2.29
2022-11-29T00:31:59.648Z,2.20
2022-11-29T00:34:28.546Z,2.27
2022-11-29T00:36:56.809Z,2.26
2022-11-29T00:39:25.108Z,2.24
2022-11-29T00:41:53.390Z,2.21
2022-11-29T00:44:21.855Z,2.25
2022-11-29T00:46:50.432Z,2.25
2022-11-29T00:49:18.647Z,2.23
2022-11-29T00:51:47.494Z,2.21
2022-11-29T00:54:15.936Z,2.19
2022-11-29T00:56:44.354Z,2.17
2022-11-29T00:59:12.608Z,2.17
2022-11-29T01:01:41.046Z,2.16
2022-11-29T01:04:09.351Z,2.15
2022-11-29T01:06:37.631Z,2.06
2022-11-29T01:09:06.178Z,2.13
2022-11-29T01:11:35.005Z,2.11
2022-11-29T01:14:04.597Z,2.10
2022-11-29T01:16:33.379Z,2.08
2022-11-29T01:19:01.682Z,2.07
2022-11-29T01:21:30.555Z,2.06
2022-11-29T01:24:00.142Z,2.05
2022-11-29T01:26:30.253Z,1.97
2022-11-29T01:28:59.481Z,2.01
2022-11-29T01:31:33.438Z,1.99
2022-11-29T01:34:03.600Z,2.00
2022-11-29T01:36:32.036Z,2.01
2022-11-29T01:39:01.002Z,2.02
2022-11-29T01:41:32.489Z,2.03
2022-11-29T01:44:26.578Z,2.04
2022-11-29T01:46:55.929Z,2.04
2022-11-29T01:49:28.309Z,2.04
2022-11-29T01:52:04.827Z,2.03
2022-11-29T01:54:37.538Z,2.04
2022-11-29T01:57:07.661Z,2.04
2022-11-29T01:59:41.289Z,2.03
2022-11-29T02:02:15.256Z,2.02
2022-11-29T02:04:46.199Z,2.01
2022-11-29T02:07:14.587Z,2.00
2022-11-29T02:09:43.038Z,1.99
2022-11-29T02:12:30.518Z,1.99
2022-11-29T02:15:26.539Z,1.98
2022-11-29T02:18:12.273Z,1.98
2022-11-29T02:21:11.312Z,1.97
2022-11-29T02:23:58.048Z,1.95
2022-11-29T02:27:02.993Z,1.93
2022-11-29T02:30:08.846Z,1.94
2022-11-29T02:32:59.067Z,1.94
2022-11-29T02:35:50.894Z,1.93
2022-11-29T02:38:22.010Z,1.91
2022-11-29T02:40:56.193Z,1.89
2022-11-29T02:43:31.813Z,1.88
2022-11-29T02:46:18.010Z,1.86
2022-11-29T02:49:07.717Z,1.86
2022-11-29T02:52:03.158Z,1.82
2022-11-29T02:54:58.522Z,1.71
2022-11-29T02:57:38.597Z,1.79
2022-11-29T03:00:20.513Z,1.78
2022-11-29T03:02:51.863Z,1.75
2022-11-29T03:05:32.420Z,1.74
2022-11-29T03:08:15.626Z,1.72
2022-11-29T03:11:08.347Z,1.69
2022-11-29T03:13:59.780Z,1.68
2022-11-29T03:16:50.447Z,1.67
2022-11-29T03:20:00.062Z,1.65
2022-11-29T03:22:52.743Z,1.63
2022-11-29T03:25:21.047Z,1.61
2022-11-29T03:28:13.077Z,1.60
2022-11-29T03:30:48.698Z,1.60
2022-11-29T03:33:22.060Z,1.56
2022-11-29T03:35:59.475Z,1.54
2022-11-29T03:38:47.990Z,1.53
2022-11-29T03:41:34.687Z,1.49
2022-11-29T03:44:11.521Z,1.47
2022-11-29T03:46:56.817Z,1.47
2022-11-29T03:49:43.207Z,1.46
2022-11-29T03:52:44.463Z,1.46
2022-11-29T03:55:25.719Z,1.45
2022-11-29T03:58:11.804Z,1.44
2022-11-29T04:00:49.020Z,1.43
2022-11-29T04:03:46.172Z,1.43
2022-11-29T04:06:42.220Z,1.43
2022-11-29T04:09:28.667Z,1.41
2022-11-29T04:12:23.871Z,1.41
2022-11-29T04:15:10.459Z,1.40
2022-11-29T04:18:14.695Z,1.39
2022-11-29T04:21:01.566Z,1.36
2022-11-29T04:23:57.515Z,1.35
2022-11-29T04:26:53.248Z,1.34
2022-11-29T04:29:39.611Z,1.32
2022-11-29T04:32:26.027Z,1.29
2022-11-29T04:35:18.520Z,1.27
2022-11-29T04:37:52.531Z,1.24
2022-11-29T04:40:38.403Z,1.19
2022-11-29T04:43:28.371Z,1.15
2022-11-29T04:46:33.910Z,1.10
2022-11-29T04:49:17.219Z,1.08
2022-11-29T04:52:25.248Z,0.90
2022-11-29T04:54:56.356Z,0.92
2022-11-29T04:57:53.169Z,1.00
2022-11-29T05:00:24.840Z,0.99
2022-11-29T05:03:00.238Z,0.98
2022-11-29T05:05:51.384Z,0.98
2022-11-29T05:08:38.289Z,0.98
2022-11-29T05:11:35.192Z,0.89
2022-11-29T05:14:22.172Z,0.97
2022-11-29T05:17:20.780Z,0.94
2022-11-29T05:20:07.260Z,0.91
2022-11-29T05:22:51.791Z,0.89
2022-11-29T05:25:52.401Z,0.88
2022-11-29T05:28:56.872Z,0.88
2022-11-29T05:31:46.324Z,0.89
2022-11-29T05:34:56.388Z,0.88
2022-11-29T05:37:42.080Z,0.88
2022-11-29T05:40:22.408Z,0.88
2022-11-29T05:42:56.205Z,0.90
2022-11-29T05:45:41.459Z,0.91
2022-11-29T05:48:33.936Z,0.81
2022-11-29T05:51:27.504Z,0.87
2022-11-29T05:54:05.531Z,0.88
2022-11-29T05:56:42.547Z,0.89
2022-11-29T05:59:18.883Z,0.90
2022-11-29T06:02:21.190Z,0.92
2022-11-29T06:04:56.071Z,0.75
2022-11-29T06:07:39.528Z,0.93
2022-11-29T06:10:17.867Z,0.94
2022-11-29T06:12:56.016Z,0.94
2022-11-29T06:15:52.298Z,0.94
2022-11-29T06:18:26.787Z,0.93
2022-11-29T06:21:05.154Z,0.92
2022-11-29T06:23:42.330Z,0.92
2022-11-29T06:26:30.420Z,0.93
2022-11-29T06:29:19.765Z,0.94
2022-11-29T06:31:54.432Z,0.93
2022-11-29T06:34:27.557Z,0.94
2022-11-29T06:37:38.508Z,0.95
2022-11-29T06:40:11.110Z,0.86
2022-11-29T06:42:39.263Z,0.95
2022-11-29T06:45:10.640Z,0.94
2022-11-29T06:47:49.517Z,0.87
2022-11-29T06:50:26.700Z,0.73
2022-11-29T06:53:07.393Z,0.95
2022-11-29T06:55:44.801Z,0.95
2022-11-29T06:58:22.834Z,0.87
2022-11-29T07:01:11.360Z,0.97
2022-11-29T07:03:55.843Z,0.99
2022-11-29T07:06:28.948Z,0.99
2022-11-29T07:09:01.438Z,1.00
2022-11-29T07:11:30.080Z,1.01
2022-11-29T07:13:58.595Z,1.00
2022-11-29T07:17:04.464Z,1.00
2022-11-29T07:19:50.950Z,1.01
2022-11-29T07:22:34.334Z,1.02
2022-11-29T07:25:32.859Z,1.04
2022-11-29T07:28:36.403Z,1.04
2022-11-29T07:31:46.298Z,1.01
2022-11-29T07:34:42.963Z,1.05
2022-11-29T07:37:29.925Z,1.05
2022-11-29T07:40:15.595Z,1.06
2022-11-29T07:43:04.246Z,0.96
2022-11-29T07:45:36.342Z,0.98
2022-11-29T07:48:05.167Z,1.05
2022-11-29T07:50:35.544Z,1.06
2022-11-29T07:53:03.989Z,1.07
2022-11-29T07:55:35.013Z,1.09
2022-11-29T07:58:03.342Z,1.11
2022-11-29T08:00:31.715Z,1.14
2022-11-29T08:02:59.983Z,1.09
2022-11-29T08:05:28.186Z,1.19
2022-11-29T08:07:56.883Z,1.21
2022-11-29T08:10:25.680Z,1.23
2022-11-29T08:12:54.524Z,1.24
2022-11-29T08:15:24.146Z,1.26
2022-11-29T08:17:53.383Z,1.27
2022-11-29T08:20:21.786Z,1.31
2022-11-29T08:22:58.523Z,1.32
2022-11-29T08:25:28.061Z,1.33
2022-11-29T08:27:57.011Z,1.34
2022-11-29T08:30:25.207Z,1.37
2022-11-29T08:32:53.448Z,1.39
2022-11-29T08:35:23.275Z,1.40
2022-11-29T08:37:51.764Z,1.40
2022-11-29T08:40:20.427Z,1.41
2022-11-29T08:42:48.779Z,1.43
2022-11-29T08:45:17.908Z,1.45
2022-11-29T08:47:46.299Z,1.40
2022-11-29T08:50:17.437Z,1.51
2022-11-29T08:53:07.500Z,1.53
2022-11-29T08:55:43.233Z,1.55
2022-11-29T08:58:13.922Z,1.56
2022-11-29T09:00:45.700Z,1.58
2022-11-29T09:03:32.759Z,1.58
2022-11-29T09:06:12.172Z,1.61
2022-11-29T09:08:45.535Z,1.61
2022-11-29T09:11:19.996Z,1.63
2022-11-29T09:13:50.726Z,1.65
2022-11-29T09:16:21.353Z,1.67
2022-11-29T09:18:51.791Z,1.69
2022-11-29T09:21:20.751Z,1.54
2022-11-29T09:23:49.029Z,1.72
2022-11-29T09:26:20.451Z,1.73
2022-11-29T09:28:49.407Z,1.72
2022-11-29T09:31:17.832Z,1.71
2022-11-29T09:33:47.541Z,1.73
2022-11-29T09:36:16.228Z,1.74
2022-11-29T09:38:44.419Z,1.74
2022-11-29T09:41:31.360Z,1.67
2022-11-29T09:44:07.243Z,1.76
2022-11-29T09:47:03.612Z,1.76
2022-11-29T09:49:34.608Z,1.76
2022-11-29T09:52:14.713Z,1.75
2022-11-29T09:54:54.856Z,1.75
2022-11-29T09:57:25.161Z,1.76
2022-11-29T09:59:57.827Z,1.78
2022-11-29T10:02:38.268Z,1.71
2022-11-29T10:05:19.359Z,1.81
2022-11-29T10:08:20.982Z,1.82
2022-11-29T10:10:54.823Z,1.85
2022-11-29T10:13:29.835Z,1.72
2022-11-29T10:16:06.530Z,1.89
2022-11-29T10:18:36.502Z,1.83
2022-11-29T10:21:17.641Z,1.90
2022-11-29T10:23:53.597Z,1.92
2022-11-29T10:26:23.180Z,1.95
2022-11-29T10:28:51.810Z,1.98
2022-11-29T10:31:35.353Z,2.01
2022-11-29T10:34:16.099Z,2.02
2022-11-29T10:36:49.143Z,2.01
2022-11-29T10:39:26.773Z,2.02
2022-11-29T10:42:01.753Z,2.05
2022-11-29T10:44:33.113Z,2.04
2022-11-29T10:47:10.535Z,2.04
2022-11-29T10:49:40.464Z,2.03
2022-11-29T10:52:19.910Z,2.02
2022-11-29T10:54:50.065Z,2.01
2022-11-29T10:57:21.107Z,2.01
2022-11-29T11:00:04.588Z,2.00
2022-11-29T11:02:33.755Z,2.00
2022-11-29T11:05:04.081Z,1.99
2022-11-29T11:07:35.809Z,2.00
2022-11-29T11:10:17.594Z,1.98
2022-11-29T11:13:01.574Z,1.98
2022-11-29T11:15:32.250Z,1.96
2022-11-29T11:18:06.457Z,1.92
2022-11-29T11:20:41.428Z,1.91
2022-11-29T11:23:31.750Z,1.88
2022-11-29T11:26:08.715Z,1.88
2022-11-29T11:28:49.011Z,1.90
2022-11-29T11:31:31.966Z,1.94
2022-11-29T11:34:31.861Z,1.94
2022-11-29T11:37:22.342Z,1.97
2022-11-29T11:39:53.292Z,1.98
2022-11-29T11:42:39.679Z,1.81
2022-11-29T11:45:10.528Z,1.97
2022-11-29T11:47:52.175Z,1.96
2022-11-29T11:50:28.666Z,1.97
2022-11-29T11:53:31.741Z,1.98
2022-11-29T11:56:02.998Z,1.93
2022-11-29T11:58:38.337Z,1.91
2022-11-29T12:01:12.549Z,1.91
2022-11-29T12:03:57.304Z,1.88
2022-11-29T12:06:43.605Z,1.86
2022-11-29T12:09:19.543Z,1.86
2022-11-29T12:12:11.073Z,1.85
2022-11-29T12:15:02.504Z,1.77
2022-11-29T12:17:42.491Z,1.84
2022-11-29T12:20:13.427Z,1.87
2022-11-29T12:22:58.459Z,1.89
2022-11-29T12:25:43.569Z,1.93
2022-11-29T12:28:19.810Z,1.97
2022-11-29T12:30:57.792Z,1.97
2022-11-29T12:34:04.479Z,1.97
2022-11-29T12:36:47.447Z,1.97
2022-11-29T12:39:49.838Z,1.97
2022-11-29T12:42:36.390Z,1.96
2022-11-29T12:45:28.879Z,1.92
2022-11-29T12:48:00.818Z,1.88
2022-11-29T12:51:11.976Z,1.85
2022-11-29T12:54:04.771Z,1.82
2022-11-29T12:56:49.382Z,1.81
2022-11-29T12:59:49.552Z,1.78
2022-11-29T13:02:34.794Z,1.74
2022-11-29T13:05:25.086Z,1.63
2022-11-29T13:08:11.092Z,1.72
2022-11-29T13:11:03.924Z,1.73
2022-11-29T13:13:44.796Z,1.71
2022-11-29T13:16:18.942Z,1.74
2022-11-29T13:19:11.385Z,1.74
2022-11-29T13:21:52.328Z,1.75
2022-11-29T13:24:45.386Z,1.76
2022-11-29T13:27:19.199Z,1.73
2022-11-29T13:29:49.030Z,1.71
2022-11-29T13:32:49.284Z,1.69
2022-11-29T13:35:23.793Z,1.65
2022-11-29T13:37:57.995Z,1.63
2022-11-29T13:40:38.055Z,1.59
2022-11-29T13:43:30.317Z,1.58
2022-11-29T13:46:30.529Z,1.58
2022-11-29T13:48:58.867Z,1.54
2022-11-29T13:51:29.454Z,1.44
2022-11-29T13:54:01.657Z,1.54
2022-11-29T13:56:37.030Z,1.44
2022-11-29T13:59:08.662Z,1.50
2022-11-29T14:01:45.760Z,1.49
2022-11-29T14:04:28.898Z,1.47
2022-11-29T14:07:19.711Z,1.48
2022-11-29T14:09:56.816Z,1.42
2022-11-29T14:12:35.920Z,1.45
2022-11-29T14:15:28.389Z,1.44
2022-11-29T14:18:03.028Z,1.44
2022-11-29T14:20:32.537Z,1.44
2022-11-29T14:23:09.348Z,1.41
2022-11-29T14:25:56.839Z,1.40
2022-11-29T14:28:25.400Z,1.27
2022-11-29T14:30:58.753Z,1.33
2022-11-29T14:33:48.621Z,1.33
2022-11-29T14:36:46.409Z,1.15
2022-11-29T14:39:14.784Z,1.23
2022-11-29T14:42:00.897Z,1.23
2022-11-29T14:44:34.304Z,1.23
2022-11-29T14:47:07.024Z,1.22
2022-11-29T14:49:44.048Z,1.21
2022-11-29T14:52:14.987Z,1.11
2022-11-29T14:54:56.899Z,1.17
2022-11-29T14:57:47.136Z,1.17
2022-11-29T15:00:19.766Z,1.16
2022-11-29T15:02:53.571Z,1.12
2022-11-29T15:05:41.708Z,1.15
2022-11-29T15:08:17.572Z,1.15
2022-11-29T15:10:53.337Z,1.13
2022-11-29T15:13:32.007Z,1.12
2022-11-29T15:16:08.689Z,1.10
2022-11-29T15:18:49.834Z,1.08
2022-11-29T15:21:51.504Z,1.07
2022-11-29T15:24:22.564Z,0.87
2022-11-29T15:27:04.442Z,1.06
2022-11-29T15:29:32.602Z,1.05
2022-11-29T15:32:05.794Z,0.96
2022-11-29T15:34:40.116Z,1.06
2022-11-29T15:37:22.329Z,1.04
2022-11-29T15:40:03.102Z,1.02
2022-11-29T15:43:13.528Z,1.01
2022-11-29T15:45:50.512Z,1.03
2022-11-29T15:48:25.830Z,0.96
2022-11-29T15:50:56.789Z,1.07
2022-11-29T15:53:32.336Z,1.09
2022-11-29T15:56:03.552Z,1.11
2022-11-29T15:58:34.113Z,1.10
2022-11-29T16:01:03.299Z,1.11
2022-11-29T16:03:35.612Z,1.13
2022-11-29T16:06:21.195Z,1.12
2022-11-29T16:08:50.184Z,1.11
2022-11-29T16:11:21.994Z,1.11
2022-11-29T16:14:13.555Z,1.10
2022-11-29T16:16:45.382Z,1.08
2022-11-29T16:19:33.797Z,1.08
2022-11-29T16:22:11.209Z,1.04
2022-11-29T16:25:01.218Z,1.01
2022-11-29T16:27:33.213Z,0.98
2022-11-29T16:30:02.528Z,0.89
2022-11-29T16:32:42.564Z,0.97
2022-11-29T16:35:21.544Z,0.99
2022-11-29T16:37:50.447Z,0.99
2022-11-29T16:40:30.455Z,0.97
2022-11-29T16:43:04.803Z,0.95
2022-11-29T16:45:43.381Z,0.95
2022-11-29T16:48:28.350Z,0.94
2022-11-29T16:51:17.163Z,0.93
2022-11-29T16:53:48.012Z,0.94
2022-11-29T16:56:17.788Z,0.76
2022-11-29T16:59:20.579Z,0.95
2022-11-29T17:01:43.444Z,0.95
2022-11-29T17:04:11.655Z,0.92
2022-11-29T17:06:56.718Z,0.88
2022-11-29T17:09:28.876Z,0.78
2022-11-29T17:12:01.196Z,0.86
2022-11-29T17:14:30.367Z,0.84
2022-11-29T17:17:02.617Z,0.73
2022-11-29T17:19:31.194Z,0.79
2022-11-29T17:21:59.639Z,0.79
2022-11-29T17:24:27.976Z,0.77
2022-11-29T17:26:56.506Z,0.76
2022-11-29T17:29:24.726Z,0.74
2022-11-29T17:31:53.663Z,0.73
2022-11-29T17:34:21.947Z,0.73
2022-11-29T17:36:51.015Z,0.72
2022-11-29T17:39:20.394Z,0.62
2022-11-29T17:41:49.045Z,0.62
2022-11-29T17:44:17.191Z,0.69
2022-11-29T17:46:45.474Z,0.70
2022-11-29T17:49:13.706Z,0.69
2022-11-29T17:51:57.456Z,0.68
2022-11-29T17:54:26.366Z,0.68
2022-11-29T17:56:55.392Z,0.68
2022-11-29T17:59:23.526Z,0.68
2022-11-29T18:01:52.301Z,0.68
2022-11-29T18:04:20.995Z,0.68
2022-11-29T18:06:52.524Z,0.67
2022-11-29T18:09:20.912Z,0.52
2022-11-29T18:11:50.331Z,0.66
2022-11-29T18:14:23.051Z,0.65
2022-11-29T18:16:52.191Z,0.65
2022-11-29T18:19:23.593Z,0.64
2022-11-29T18:21:52.491Z,0.65
2022-11-29T18:24:20.934Z,0.65
2022-11-29T18:26:49.352Z,0.55
2022-11-29T18:29:17.736Z,0.65
2022-11-29T18:31:46.676Z,0.58
2022-11-29T18:34:15.571Z,0.67
2022-11-29T18:36:46.571Z,0.68
2022-11-29T18:39:20.329Z,0.70
2022-11-29T18:41:50.075Z,0.57
2022-11-29T18:44:21.810Z,0.68
2022-11-29T18:46:50.394Z,0.70
2022-11-29T18:49:19.100Z,0.71
2022-11-29T18:51:49.747Z,0.70
2022-11-29T18:54:18.888Z,0.70
2022-11-29T18:56:50.396Z,0.69
2022-11-29T18:59:18.891Z,0.67
2022-11-29T19:01:48.676Z,0.66
2022-11-29T19:04:20.139Z,0.67
2022-11-29T19:06:49.390Z,0.68
2022-11-29T19:09:24.022Z,0.67
2022-11-29T19:11:52.776Z,0.67
2022-11-29T19:14:21.490Z,0.66
2022-11-29T19:16:50.431Z,0.65
2022-11-29T19:19:21.521Z,0.67
2022-11-29T19:21:49.817Z,0.67
2022-11-29T19:24:18.655Z,0.67
2022-11-29T19:26:49.806Z,0.66
2022-11-29T19:29:18.183Z,0.66
2022-11-29T19:31:46.846Z,0.68
2022-11-29T19:34:15.292Z,0.67
2022-11-29T19:36:44.819Z,0.69
2022-11-29T19:39:15.786Z,0.67
2022-11-29T19:41:46.921Z,0.66
2022-11-29T19:44:15.464Z,0.64
2022-11-29T19:46:47.192Z,0.64
2022-11-29T19:49:15.783Z,0.64
2022-11-29T19:51:44.272Z,0.65
2022-11-29T19:54:12.672Z,0.56
2022-11-29T19:56:41.343Z,0.64
2022-11-29T19:59:10.037Z,0.65
2022-11-29T20:01:41.840Z,0.65
2022-11-29T20:04:13.948Z,0.67
2022-11-29T20:06:43.218Z,0.67
2022-11-29T20:09:13.685Z,0.67
2022-11-29T20:11:42.189Z,0.68
2022-11-29T20:14:12.180Z,0.69
2022-11-29T20:16:40.719Z,0.70
2022-11-29T20:19:11.670Z,0.72
2022-11-29T20:21:44.032Z,0.73
2022-11-29T20:24:14.608Z,0.75
2022-11-29T20:26:45.852Z,0.79
2022-11-29T20:29:14.804Z,0.82
2022-11-29T20:31:50.271Z,0.81
2022-11-29T20:34:20.909Z,0.87
2022-11-29T20:37:12.248Z,0.88
2022-11-29T20:39:40.700Z,0.93
2022-11-29T20:42:27.537Z,0.94
2022-11-29T20:44:57.888Z,0.96
2022-11-29T20:47:27.933Z,0.96
2022-11-29T20:49:57.377Z,1.00
2022-11-29T20:52:45.470Z,1.01
2022-11-29T20:55:13.856Z,1.04
2022-11-29T20:57:42.241Z,1.05
2022-11-29T21:00:12.370Z,1.07
2022-11-29T21:02:40.949Z,1.08
2022-11-29T21:05:09.735Z,1.08
2022-11-29T21:07:38.201Z,1.10
2022-11-29T21:10:07.280Z,1.09
2022-11-29T21:12:35.947Z,1.00
2022-11-29T21:15:05.057Z,1.06
2022-11-29T21:17:34.114Z,1.07
2022-11-29T21:20:03.150Z,0.99
2022-11-29T21:22:53.172Z,1.07
2022-11-29T21:25:27.634Z,1.05
2022-11-29T21:27:57.161Z,1.05
2022-11-29T21:30:25.881Z,1.06
2022-11-29T21:32:54.719Z,1.06
2022-11-29T21:35:24.054Z,1.02
2022-11-29T21:37:57.013Z,1.05
2022-11-29T21:40:25.710Z,1.05
2022-11-29T21:42:54.049Z,1.06
2022-11-29T21:45:22.408Z,1.06
2022-11-29T21:47:50.830Z,1.06
2022-11-29T21:50:19.257Z,1.07
2022-11-29T21:52:52.095Z,0.98
2022-11-29T21:55:20.845Z,0.91
2022-11-29T21:57:49.747Z,0.96
2022-11-29T22:00:19.363Z,1.08
2022-11-29T22:02:48.032Z,1.08
2022-11-29T22:05:16.555Z,1.10
2022-11-29T22:07:45.271Z,1.11
2022-11-29T22:10:13.825Z,1.12
2022-11-29T22:12:51.254Z,1.13
2022-11-29T22:15:24.807Z,1.05
2022-11-29T22:17:53.786Z,1.07
2022-11-29T22:20:22.610Z,1.12
2022-11-29T22:22:55.730Z,1.11
2022-11-29T22:25:26.850Z,1.10
2022-11-29T22:27:55.231Z,1.11
2022-11-29T22:30:23.548Z,1.11
2022-11-29T22:32:51.938Z,1.13
2022-11-29T22:35:20.358Z,1.14
2022-11-29T22:37:48.767Z,1.16
2022-11-29T22:40:17.226Z,1.09
2022-11-29T22:42:45.583Z,1.18
2022-11-29T22:45:13.993Z,1.17
2022-11-29T22:47:42.414Z,1.17
2022-11-29T22:50:11.081Z,1.18
2022-11-29T22:52:39.427Z,1.19
2022-11-29T22:55:08.485Z,1.20
2022-11-29T22:57:37.159Z,1.20
2022-11-29T23:00:06.367Z,1.21
2022-11-29T23:02:34.818Z,1.20
2022-11-29T23:05:03.407Z,1.22
2022-11-29T23:07:31.744Z,1.21
2022-11-29T23:10:00.115Z,1.12
2022-11-29T23:12:28.608Z,1.20
2022-11-29T23:14:57.295Z,1.19
2022-11-29T23:17:26.043Z,1.19
2022-11-29T23:19:54.715Z,1.18
2022-11-29T23:22:23.251Z,1.18
2022-11-29T23:24:51.714Z,1.18
2022-11-29T23:27:20.428Z,1.18
2022-11-29T23:29:49.296Z,1.11
2022-11-29T23:32:17.827Z,1.19
2022-11-29T23:34:46.204Z,1.19
2022-11-29T23:37:14.699Z,1.19
2022-11-29T23:39:43.126Z,1.19
2022-11-29T23:42:11.331Z,1.18
2022-11-29T23:44:40.054Z,1.17
2022-11-29T23:47:08.368Z,1.17
2022-11-29T23:49:39.923Z,1.16
2022-11-29T23:52:08.338Z,1.15
2022-11-29T23:54:36.448Z,1.16
2022-11-29T23:57:04.626Z,1.16
2022-11-29T23:59:32.930Z,1.17
